Wetterdaten: aktuell Samstag, 12.06.2021 20:55
Datum Zeit Lufttemp. Wassertemp. Feuchte Luftdruck Regen Wind Richtung Richtung Windben
12.06.2021 20:55 24,6 C 24,4 C 56 % 1013,7 hPa 0,0 l/m 0,0 kts (0 Bft) O-SO 107 0,0 kts (0 Bft)
12.06.2021 20:54 24,6 C 25,0 C 55 % 1013,7 hPa 0,0 l/m 0,0 kts (0 Bft) O-SO 107 0,0 kts (0 Bft)
12.06.2021 20:53 24,7 C 24,4 C 55 % 1013,7 hPa 0,0 l/m 0,0 kts (0 Bft) O-SO 107 0,0 kts (0 Bft)
12.06.2021 20:52 24,7 C 24,4 C 54 % 1013,8 hPa 0,0 l/m 0,0 kts (0 Bft) O-SO 107 0,0 kts (0 Bft)
12.06.2021 20:51 24,8 C 24,4 C 54 % 1013,7 hPa 0,0 l/m 0,0 kts (0 Bft) O-SO 107 0,0 kts (0 Bft)
12.06.2021 20:50 24,8 C 24,4 C 54 % 1013,7 hPa 0,0 l/m 0,0 kts (0 Bft) O-SO 107 0,0 kts (0 Bft)
12.06.2021 20:49 24,8 C 24,4 C 54 % 1013,7 hPa 0,0 l/m 0,0 kts (0 Bft) O-SO 107 0,0 kts (0 Bft)
12.06.2021 20:48 24,8 C 24,4 C 53 % 1013,6 hPa 0,0 l/m 0,0 kts (0 Bft) O-SO 107 0,0 kts (0 Bft)
12.06.2021 20:47 24,9 C 25,0 C 53 % 1013,7 hPa 0,0 l/m 0,0 kts (0 Bft) O-SO 107 0,0 kts (0 Bft)
12.06.2021 20:46 24,9 C 24,4 C 53 % 1013,6 hPa 0,0 l/m 0,0 kts (0 Bft) O-SO 107 0,0 kts (0 Bft)
12.06.2021 20:45 24,9 C 24,4 C 52 % 1013,6 hPa 0,0 l/m 0,1 kts (0 Bft) O-SO 107 1,0 kts (1 Bft)
12.06.2021 20:44 24,9 C 24,4 C 51 % 1013,6 hPa 0,0 l/m 0,0 kts (0 Bft) O-SO 107 0,0 kts (0 Bft)
12.06.2021 20:43 25,0 C 24,4 C 52 % 1013,6 hPa 0,0 l/m 0,0 kts (0 Bft) O-SO 107 0,0 kts (0 Bft)
12.06.2021 20:42 25,0 C 24,4 C 52 % 1013,6 hPa 0,0 l/m 0,0 kts (0 Bft) O-SO 107 0,0 kts (0 Bft)
12.06.2021 20:41 25,1 C 24,4 C 52 % 1013,5 hPa 0,0 l/m 0,0 kts (0 Bft) O-SO 107 0,0 kts (0 Bft)
12.06.2021 20:40 25,1 C 24,4 C 52 % 1013,5 hPa 0,0 l/m 0,0 kts (0 Bft) O-SO 107 0,0 kts (0 Bft)
12.06.2021 20:39 25,1 C 24,4 C 52 % 1013,5 hPa 0,0 l/m 0,1 kts (0 Bft) O-SO 107 1,0 kts (1 Bft)
12.06.2021 20:38 25,1 C 24,4 C 53 % 1013,5 hPa 0,0 l/m 0,0 kts (0 Bft) O-SO 107 0,0 kts (0 Bft)
12.06.2021 20:37 25,2 C 24,4 C 53 % 1013,5 hPa 0,0 l/m 0,0 kts (0 Bft) O-SO 107 0,0 kts (0 Bft)
12.06.2021 20:36 25,2 C 24,4 C 53 % 1013,5 hPa 0,0 l/m 0,1 kts (0 Bft) O-SO 107 1,0 kts (1 Bft)
12.06.2021 20:35 25,2 C 24,4 C 53 % 1013,5 hPa 0,0 l/m 0,1 kts (0 Bft) O-SO 107 1,0 kts (1 Bft)
12.06.2021 20:34 25,3 C 24,4 C 53 % 1013,5 hPa 0,0 l/m 0,0 kts (0 Bft) O-SO 107 0,0 kts (0 Bft)
12.06.2021 20:33 25,4 C 24,4 C 53 % 1013,5 hPa 0,0 l/m 0,1 kts (0 Bft) O-SO 107 1,0 kts (1 Bft)
12.06.2021 20:32 25,4 C 24,4 C 54 % 1013,5 hPa 0,0 l/m 0,1 kts (0 Bft) O-SO 107 1,0 kts (1 Bft)
12.06.2021 20:31 25,5 C 24,4 C 55 % 1013,5 hPa 0,0 l/m 0,0 kts (0 Bft) O-SO 107 0,0 kts (0 Bft)
12.06.2021 20:30 25,5 C 24,4 C 59 % 1013,5 hPa 0,0 l/m 0,0 kts (0 Bft) O-SO 107 0,0 kts (0 Bft)
12.06.2021 20:29 25,5 C 24,4 C 56 % 1013,4 hPa 0,0 l/m 0,1 kts (0 Bft) O-SO 107 1,0 kts (1 Bft)
12.06.2021 20:28 25,6 C 24,4 C 55 % 1013,4 hPa 0,0 l/m 0,1 kts (0 Bft) O-SO 107 1,0 kts (1 Bft)
12.06.2021 20:27 25,6 C 24,4 C 54 % 1013,4 hPa 0,0 l/m 0,8 kts (1 Bft) O-SO 107 3,1 kts (2 Bft)
12.06.2021 20:26 25,6 C 24,4 C 54 % 1013,4 hPa 0,0 l/m 0,1 kts (0 Bft) O-SO 107 1,0 kts (1 Bft)
12.06.2021 20:25 25,6 C 24,4 C 52 % 1013,4 hPa 0,0 l/m 0,0 kts (0 Bft) O-SO 107 0,0 kts (0 Bft)
12.06.2021 20:24 25,6 C 24,4 C 49 % 1013,4 hPa 0,0 l/m 0,0 kts (0 Bft) O-SO 107 0,0 kts (0 Bft)
12.06.2021 20:23 25,6 C 24,4 C 49 % 1013,3 hPa 0,0 l/m 0,2 kts (0 Bft) O-SO 107 1,0 kts (1 Bft)
12.06.2021 20:22 25,7 C 24,4 C 50 % 1013,3 hPa 0,0 l/m 0,0 kts (0 Bft) O-SO 107 0,0 kts (0 Bft)
12.06.2021 20:21 25,7 C 24,4 C 51 % 1013,3 hPa 0,0 l/m 0,0 kts (0 Bft) O-SO 107 0,0 kts (0 Bft)
12.06.2021 20:20 25,7 C 24,4 C 51 % 1013,2 hPa 0,0 l/m 0,0 kts (0 Bft) O-SO 107 0,0 kts (0 Bft)
12.06.2021 20:19 25,8 C 24,4 C 49 % 1013,2 hPa 0,0 l/m 0,0 kts (0 Bft) O-SO 107 0,0 kts (0 Bft)
12.06.2021 20:18 25,8 C 24,4 C 49 % 1013,3 hPa 0,0 l/m 0,0 kts (0 Bft) O-SO 107 0,0 kts (0 Bft)
12.06.2021 20:17 25,8 C 24,4 C 49 % 1013,2 hPa 0,0 l/m 0,0 kts (0 Bft) O-SO 107 0,0 kts (0 Bft)
12.06.2021 20:16 25,9 C 24,4 C 48 % 1013,2 hPa 0,0 l/m 0,3 kts (0 Bft) O-SO 107 2,1 kts (1 Bft)
12.06.2021 20:15 25,9 C 24,4 C 48 % 1013,3 hPa 0,0 l/m 3,1 kts (2 Bft) O-SO 107 4,2 kts (2 Bft)
12.06.2021 20:14 25,9 C 24,4 C 49 % 1013,2 hPa 0,0 l/m 1,8 kts (1 Bft) O-SO 107 3,1 kts (2 Bft)
12.06.2021 20:13 26,0 C 24,4 C 50 % 1013,2 hPa 0,0 l/m 0,8 kts (1 Bft) O-SO 107 4,2 kts (2 Bft)
12.06.2021 20:12 26,1 C 24,4 C 49 % 1013,2 hPa 0,0 l/m 2,3 kts (1 Bft) O-SO 107 4,2 kts (2 Bft)
12.06.2021 20:11 26,1 C 24,4 C 49 % 1013,2 hPa 0,0 l/m 2,4 kts (1 Bft) O-SO 107 4,2 kts (2 Bft)
12.06.2021 20:10 26,2 C 24,4 C 50 % 1013,3 hPa 0,0 l/m 0,9 kts (1 Bft) O-SO 107 4,2 kts (2 Bft)
12.06.2021 20:09 26,2 C 24,4 C 50 % 1013,2 hPa 0,0 l/m 0,1 kts (0 Bft) O-SO 107 1,0 kts (1 Bft)
12.06.2021 20:08 26,3 C 24,4 C 50 % 1013,2 hPa 0,0 l/m 0,8 kts (1 Bft) O-SO 107 3,1 kts (2 Bft)
12.06.2021 20:07 26,3 C 24,4 C 51 % 1013,3 hPa 0,0 l/m 0,1 kts (0 Bft) O-SO 107 1,0 kts (1 Bft)
12.06.2021 20:06 26,4 C 24,4 C 51 % 1013,2 hPa 0,0 l/m 0,0 kts (0 Bft) O-SO 107 0,0 kts (0 Bft)
12.06.2021 20:05 26,4 C 24,4 C 51 % 1013,2 hPa 0,0 l/m 0,0 kts (0 Bft) O-SO 107 0,0 kts (0 Bft)
12.06.2021 20:04 26,4 C 24,4 C 51 % 1013,2 hPa 0,0 l/m 0,0 kts (0 Bft) O-SO 107 0,0 kts (0 Bft)
12.06.2021 20:03 26,5 C 24,4 C 51 % 1013,2 hPa 0,0 l/m 0,0 kts (0 Bft) O-SO 107 0,0 kts (0 Bft)
12.06.2021 20:02 26,5 C 24,4 C 51 % 1013,2 hPa 0,0 l/m 0,0 kts (0 Bft) O-SO 107 0,0 kts (0 Bft)
12.06.2021 20:01 26,6 C 24,4 C 50 % 1013,2 hPa 0,0 l/m 0,0 kts (0 Bft) O-SO 107 0,0 kts (0 Bft)
12.06.2021 20:00 26,6 C 24,4 C 50 % 1013,2 hPa 0,0 l/m 0,3 kts (0 Bft) O-SO 107 2,1 kts (1 Bft)
12.06.2021 19:59 26,7 C 24,4 C 50 % 1013,2 hPa 0,0 l/m 0,0 kts (0 Bft) O-SO 107 0,0 kts (0 Bft)
12.06.2021 19:58 26,7 C 24,4 C 50 % 1013,1 hPa 0,0 l/m 0,0 kts (0 Bft) O-SO 107 0,0 kts (0 Bft)
12.06.2021 19:57 26,8 C 24,4 C 50 % 1013,2 hPa 0,0 l/m 0,0 kts (0 Bft) O-SO 107 0,0 kts (0 Bft)
12.06.2021 19:56 26,8 C 24,4 C 50 % 1013,2 hPa 0,0 l/m 0,0 kts (0 Bft) O-SO 107 0,0 kts (0 Bft)
12.06.2021 19:55 26,9 C 24,4 C 49 % 1013,2 hPa 0,0 l/m 0,0 kts (0 Bft) O-SO 107 0,0 kts (0 Bft)
_ Min-Zeit 05:38 03:00 17:06 18:14 - 00:04 - - 00:04
Minimum _ 14,9 C 22,2 C 33 % 1012,4 hPa - 0,0 kts (0 Bft) - - 0,0 kts (0 Bft)
_ Max-Zeit 17:05 20:47 04:00 07:05 00:01 14:31 - - 14:31
Maximum _ 31,7 C 25,0 C 87 % 1020,2 hPa 0,2 l/m 7,2 kts
O (3 Bft)
- - 11,4 kts
O-SO (4 Bft)
Durchschnitt _ 23,1 C 23,1 C 61 % 1016,8 hPa #0,2 l/m 1,0 kts (1 Bft) W - 1,8 kts (1 Bft)